sensor_id;sensor_type;location;lat;lon;timestamp;P1;durP1;ratioP1;P2;durP2;ratioP2
30998;SDS011;20549;50.042;8.968;2022-10-31T00:00:45;5.83;;;4.43;;
30998;SDS011;20549;50.042;8.968;2022-10-31T00:03:12;6.87;;;4.40;;
30998;SDS011;20549;50.042;8.968;2022-10-31T00:05:42;5.43;;;3.97;;
30998;SDS011;20549;50.042;8.968;2022-10-31T00:08:08;8.20;;;4.73;;
30998;SDS011;20549;50.042;8.968;2022-10-31T00:10:36;4.47;;;3.87;;
30998;SDS011;20549;50.042;8.968;2022-10-31T00:13:01;7.40;;;4.07;;
30998;SDS011;20549;50.042;8.968;2022-10-31T00:15:27;5.90;;;4.13;;
30998;SDS011;20549;50.042;8.968;2022-10-31T00:17:54;7.43;;;4.27;;
30998;SDS011;20549;50.042;8.968;2022-10-31T00:20:20;5.00;;;3.90;;
30998;SDS011;20549;50.042;8.968;2022-10-31T00:22:47;6.67;;;4.37;;
30998;SDS011;20549;50.042;8.968;2022-10-31T00:25:14;6.20;;;3.73;;
30998;SDS011;20549;50.042;8.968;2022-10-31T00:27:40;6.73;;;4.03;;
30998;SDS011;20549;50.042;8.968;2022-10-31T00:30:07;6.07;;;4.07;;
30998;SDS011;20549;50.042;8.968;2022-10-31T00:32:33;6.60;;;4.27;;
30998;SDS011;20549;50.042;8.968;2022-10-31T00:35:00;4.63;;;4.20;;
30998;SDS011;20549;50.042;8.968;2022-10-31T00:37:27;6.87;;;5.27;;
30998;SDS011;20549;50.042;8.968;2022-10-31T00:39:53;6.33;;;4.70;;
30998;SDS011;20549;50.042;8.968;2022-10-31T00:42:20;6.90;;;4.90;;
30998;SDS011;20549;50.042;8.968;2022-10-31T00:44:46;16.77;;;10.50;;
30998;SDS011;20549;50.042;8.968;2022-10-31T00:47:13;16.33;;;9.93;;
30998;SDS011;20549;50.042;8.968;2022-10-31T00:49:40;11.53;;;7.60;;
30998;SDS011;20549;50.042;8.968;2022-10-31T00:52:06;19.47;;;13.70;;
30998;SDS011;20549;50.042;8.968;2022-10-31T00:54:33;14.03;;;10.10;;
30998;SDS011;20549;50.042;8.968;2022-10-31T00:56:59;13.43;;;9.17;;
30998;SDS011;20549;50.042;8.968;2022-10-31T00:59:26;8.90;;;5.97;;
30998;SDS011;20549;50.042;8.968;2022-10-31T01:01:52;5.93;;;5.33;;
30998;SDS011;20549;50.042;8.968;2022-10-31T01:04:19;6.73;;;5.80;;
30998;SDS011;20549;50.042;8.968;2022-10-31T01:06:46;7.37;;;5.27;;
30998;SDS011;20549;50.042;8.968;2022-10-31T01:09:12;6.00;;;5.40;;
30998;SDS011;20549;50.042;8.968;2022-10-31T01:11:39;6.20;;;5.00;;
30998;SDS011;20549;50.042;8.968;2022-10-31T01:14:05;6.17;;;5.57;;
30998;SDS011;20549;50.042;8.968;2022-10-31T01:16:32;7.10;;;4.87;;
30998;SDS011;20549;50.042;8.968;2022-10-31T01:18:59;5.33;;;3.80;;
30998;SDS011;20549;50.042;8.968;2022-10-31T01:21:26;8.50;;;5.87;;
30998;SDS011;20549;50.042;8.968;2022-10-31T01:23:55;7.03;;;4.27;;
30998;SDS011;20549;50.042;8.968;2022-10-31T01:26:28;6.73;;;4.13;;
30998;SDS011;20549;50.042;8.968;2022-10-31T01:28:52;5.03;;;4.10;;
30998;SDS011;20549;50.042;8.968;2022-10-31T01:31:18;7.37;;;4.43;;
30998;SDS011;20549;50.042;8.968;2022-10-31T01:33:44;5.87;;;4.77;;
30998;SDS011;20549;50.042;8.968;2022-10-31T01:36:13;7.43;;;4.30;;
30998;SDS011;20549;50.042;8.968;2022-10-31T01:38:42;4.90;;;4.13;;
30998;SDS011;20549;50.042;8.968;2022-10-31T01:41:10;4.53;;;3.87;;
30998;SDS011;20549;50.042;8.968;2022-10-31T01:43:45;6.77;;;4.03;;
30998;SDS011;20549;50.042;8.968;2022-10-31T01:46:15;7.03;;;4.37;;
30998;SDS011;20549;50.042;8.968;2022-10-31T01:48:41;6.53;;;4.67;;
30998;SDS011;20549;50.042;8.968;2022-10-31T01:51:07;6.27;;;3.40;;
30998;SDS011;20549;50.042;8.968;2022-10-31T01:53:34;4.20;;;3.80;;
30998;SDS011;20549;50.042;8.968;2022-10-31T01:56:00;4.10;;;3.70;;
30998;SDS011;20549;50.042;8.968;2022-10-31T01:58:28;4.17;;;3.53;;
30998;SDS011;20549;50.042;8.968;2022-10-31T02:00:55;4.30;;;3.83;;
30998;SDS011;20549;50.042;8.968;2022-10-31T02:03:20;6.03;;;3.63;;
30998;SDS011;20549;50.042;8.968;2022-10-31T02:05:47;3.63;;;3.33;;
30998;SDS011;20549;50.042;8.968;2022-10-31T02:08:15;3.07;;;2.87;;
30998;SDS011;20549;50.042;8.968;2022-10-31T02:10:40;3.50;;;3.20;;
30998;SDS011;20549;50.042;8.968;2022-10-31T02:13:07;5.27;;;3.73;;
30998;SDS011;20549;50.042;8.968;2022-10-31T02:15:33;3.43;;;3.13;;
30998;SDS011;20549;50.042;8.968;2022-10-31T02:18:00;4.63;;;3.80;;
30998;SDS011;20549;50.042;8.968;2022-10-31T02:20:32;4.37;;;3.77;;
30998;SDS011;20549;50.042;8.968;2022-10-31T02:23:14;3.97;;;3.60;;
30998;SDS011;20549;50.042;8.968;2022-10-31T02:25:42;5.73;;;3.67;;
30998;SDS011;20549;50.042;8.968;2022-10-31T02:28:20;3.60;;;3.30;;
30998;SDS011;20549;50.042;8.968;2022-10-31T02:33:25;5.60;;;3.57;;
30998;SDS011;20549;50.042;8.968;2022-10-31T02:36:55;4.10;;;3.80;;
30998;SDS011;20549;50.042;8.968;2022-10-31T02:38:38;3.80;;;3.43;;
30998;SDS011;20549;50.042;8.968;2022-10-31T02:41:13;3.57;;;3.27;;
30998;SDS011;20549;50.042;8.968;2022-10-31T02:43:43;5.93;;;3.53;;
30998;SDS011;20549;50.042;8.968;2022-10-31T02:46:18;4.27;;;3.87;;
30998;SDS011;20549;50.042;8.968;2022-10-31T02:48:38;5.43;;;3.93;;
30998;SDS011;20549;50.042;8.968;2022-10-31T02:51:05;3.60;;;3.30;;
30998;SDS011;20549;50.042;8.968;2022-10-31T02:53:32;5.43;;;3.77;;
30998;SDS011;20549;50.042;8.968;2022-10-31T02:56:08;4.13;;;3.50;;
30998;SDS011;20549;50.042;8.968;2022-10-31T02:58:34;3.80;;;3.50;;
30998;SDS011;20549;50.042;8.968;2022-10-31T03:02:05;3.50;;;3.20;;
30998;SDS011;20549;50.042;8.968;2022-10-31T03:03:48;3.77;;;3.37;;
30998;SDS011;20549;50.042;8.968;2022-10-31T03:09:03;5.20;;;3.67;;
30998;SDS011;20549;50.042;8.968;2022-10-31T03:11:32;3.70;;;3.10;;
30998;SDS011;20549;50.042;8.968;2022-10-31T03:14:00;4.30;;;3.53;;
30998;SDS011;20549;50.042;8.968;2022-10-31T03:17:10;6.30;;;3.87;;
30998;SDS011;20549;50.042;8.968;2022-10-31T03:19:03;3.80;;;3.40;;
30998;SDS011;20549;50.042;8.968;2022-10-31T03:22:21;3.73;;;3.43;;
30998;SDS011;20549;50.042;8.968;2022-10-31T03:24:00;6.83;;;3.80;;
30998;SDS011;20549;50.042;8.968;2022-10-31T03:26:27;4.13;;;3.70;;
30998;SDS011;20549;50.042;8.968;2022-10-31T03:29:01;6.10;;;3.47;;
30998;SDS011;20549;50.042;8.968;2022-10-31T03:31:27;5.80;;;3.37;;
30998;SDS011;20549;50.042;8.968;2022-10-31T03:33:53;3.83;;;3.47;;
30998;SDS011;20549;50.042;8.968;2022-10-31T03:36:19;4.50;;;3.67;;
30998;SDS011;20549;50.042;8.968;2022-10-31T03:38:46;4.57;;;4.03;;
30998;SDS011;20549;50.042;8.968;2022-10-31T03:41:14;5.97;;;3.87;;
30998;SDS011;20549;50.042;8.968;2022-10-31T03:43:42;5.30;;;3.40;;
30998;SDS011;20549;50.042;8.968;2022-10-31T03:46:08;4.93;;;3.73;;
30998;SDS011;20549;50.042;8.968;2022-10-31T03:48:35;6.77;;;3.83;;
30998;SDS011;20549;50.042;8.968;2022-10-31T03:51:07;5.13;;;3.37;;
30998;SDS011;20549;50.042;8.968;2022-10-31T03:53:32;6.43;;;3.83;;
30998;SDS011;20549;50.042;8.968;2022-10-31T03:56:11;6.00;;;3.90;;
30998;SDS011;20549;50.042;8.968;2022-10-31T03:58:37;4.10;;;3.70;;
30998;SDS011;20549;50.042;8.968;2022-10-31T04:01:11;6.57;;;4.00;;
30998;SDS011;20549;50.042;8.968;2022-10-31T04:03:38;5.43;;;3.70;;
30998;SDS011;20549;50.042;8.968;2022-10-31T04:06:08;7.23;;;3.30;;
30998;SDS011;20549;50.042;8.968;2022-10-31T04:08:36;4.40;;;3.90;;
30998;SDS011;20549;50.042;8.968;2022-10-31T04:11:00;3.83;;;3.47;;
30998;SDS011;20549;50.042;8.968;2022-10-31T04:13:27;5.23;;;4.10;;
30998;SDS011;20549;50.042;8.968;2022-10-31T04:15:54;4.70;;;3.77;;
30998;SDS011;20549;50.042;8.968;2022-10-31T04:18:22;6.23;;;3.70;;
30998;SDS011;20549;50.042;8.968;2022-10-31T04:20:48;4.13;;;3.73;;
30998;SDS011;20549;50.042;8.968;2022-10-31T04:23:24;5.30;;;3.70;;
30998;SDS011;20549;50.042;8.968;2022-10-31T04:25:50;6.67;;;4.30;;
30998;SDS011;20549;50.042;8.968;2022-10-31T04:28:17;5.20;;;3.87;;
30998;SDS011;20549;50.042;8.968;2022-10-31T04:30:44;5.90;;;4.17;;
30998;SDS011;20549;50.042;8.968;2022-10-31T04:33:10;6.73;;;3.57;;
30998;SDS011;20549;50.042;8.968;2022-10-31T04:35:37;4.30;;;3.43;;
30998;SDS011;20549;50.042;8.968;2022-10-31T04:38:03;5.50;;;4.03;;
30998;SDS011;20549;50.042;8.968;2022-10-31T04:40:30;7.30;;;4.00;;
30998;SDS011;20549;50.042;8.968;2022-10-31T04:42:57;6.57;;;3.80;;
30998;SDS011;20549;50.042;8.968;2022-10-31T04:45:23;4.50;;;3.63;;
30998;SDS011;20549;50.042;8.968;2022-10-31T04:47:50;4.97;;;3.80;;
30998;SDS011;20549;50.042;8.968;2022-10-31T04:50:16;4.50;;;3.40;;
30998;SDS011;20549;50.042;8.968;2022-10-31T04:52:43;4.73;;;3.60;;
30998;SDS011;20549;50.042;8.968;2022-10-31T04:55:10;4.90;;;4.00;;
30998;SDS011;20549;50.042;8.968;2022-10-31T04:57:40;4.20;;;3.80;;
30998;SDS011;20549;50.042;8.968;2022-10-31T05:00:05;4.00;;;3.53;;
30998;SDS011;20549;50.042;8.968;2022-10-31T05:02:33;7.30;;;3.33;;
30998;SDS011;20549;50.042;8.968;2022-10-31T05:05:00;5.80;;;3.83;;
30998;SDS011;20549;50.042;8.968;2022-10-31T05:07:26;5.03;;;4.53;;
30998;SDS011;20549;50.042;8.968;2022-10-31T05:09:53;5.07;;;4.53;;
30998;SDS011;20549;50.042;8.968;2022-10-31T05:12:20;5.90;;;5.23;;
30998;SDS011;20549;50.042;8.968;2022-10-31T05:14:46;8.33;;;7.20;;
30998;SDS011;20549;50.042;8.968;2022-10-31T05:17:13;7.90;;;7.07;;
30998;SDS011;20549;50.042;8.968;2022-10-31T05:19:39;8.00;;;6.47;;
30998;SDS011;20549;50.042;8.968;2022-10-31T05:22:06;6.03;;;5.47;;
30998;SDS011;20549;50.042;8.968;2022-10-31T05:24:32;7.10;;;6.40;;
30998;SDS011;20549;50.042;8.968;2022-10-31T05:26:59;8.13;;;6.30;;
30998;SDS011;20549;50.042;8.968;2022-10-31T05:29:26;5.63;;;4.30;;
30998;SDS011;20549;50.042;8.968;2022-10-31T05:31:52;7.00;;;4.60;;
30998;SDS011;20549;50.042;8.968;2022-10-31T05:34:19;6.77;;;4.20;;
30998;SDS011;20549;50.042;8.968;2022-10-31T05:36:45;6.80;;;4.23;;
30998;SDS011;20549;50.042;8.968;2022-10-31T05:39:12;6.00;;;4.27;;
30998;SDS011;20549;50.042;8.968;2022-10-31T05:41:39;5.17;;;4.40;;
30998;SDS011;20549;50.042;8.968;2022-10-31T05:44:05;4.90;;;3.90;;
30998;SDS011;20549;50.042;8.968;2022-10-31T05:46:32;4.57;;;4.03;;
30998;SDS011;20549;50.042;8.968;2022-10-31T05:48:58;6.17;;;4.00;;
30998;SDS011;20549;50.042;8.968;2022-10-31T05:51:25;6.27;;;4.17;;
30998;SDS011;20549;50.042;8.968;2022-10-31T05:53:51;6.40;;;4.47;;
30998;SDS011;20549;50.042;8.968;2022-10-31T05:56:18;6.27;;;4.23;;
30998;SDS011;20549;50.042;8.968;2022-10-31T05:58:45;4.33;;;3.93;;
30998;SDS011;20549;50.042;8.968;2022-10-31T06:01:11;6.17;;;3.90;;
30998;SDS011;20549;50.042;8.968;2022-10-31T06:03:38;5.93;;;4.17;;
30998;SDS011;20549;50.042;8.968;2022-10-31T06:06:04;4.90;;;4.00;;
30998;SDS011;20549;50.042;8.968;2022-10-31T06:08:31;6.30;;;4.33;;
30998;SDS011;20549;50.042;8.968;2022-10-31T06:10:58;7.87;;;4.87;;
30998;SDS011;20549;50.042;8.968;2022-10-31T06:13:24;7.17;;;4.80;;
30998;SDS011;20549;50.042;8.968;2022-10-31T06:15:51;8.13;;;4.73;;
30998;SDS011;20549;50.042;8.968;2022-10-31T06:18:17;8.80;;;4.07;;
30998;SDS011;20549;50.042;8.968;2022-10-31T06:20:44;6.30;;;4.63;;
30998;SDS011;20549;50.042;8.968;2022-10-31T06:23:11;5.33;;;4.53;;
30998;SDS011;20549;50.042;8.968;2022-10-31T06:25:37;6.53;;;5.43;;
30998;SDS011;20549;50.042;8.968;2022-10-31T06:28:04;6.73;;;5.13;;
30998;SDS011;20549;50.042;8.968;2022-10-31T06:33:08;8.47;;;5.93;;
30998;SDS011;20549;50.042;8.968;2022-10-31T06:35:35;8.37;;;7.03;;
30998;SDS011;20549;50.042;8.968;2022-10-31T06:38:02;8.10;;;7.30;;
30998;SDS011;20549;50.042;8.968;2022-10-31T06:40:28;8.50;;;7.47;;
30998;SDS011;20549;50.042;8.968;2022-10-31T06:42:58;11.60;;;8.27;;
30998;SDS011;20549;50.042;8.968;2022-10-31T06:45:24;12.93;;;8.40;;
30998;SDS011;20549;50.042;8.968;2022-10-31T06:47:53;8.97;;;7.37;;
30998;SDS011;20549;50.042;8.968;2022-10-31T06:50:20;8.47;;;6.17;;
30998;SDS011;20549;50.042;8.968;2022-10-31T06:52:50;7.00;;;5.80;;
30998;SDS011;20549;50.042;8.968;2022-10-31T06:55:19;7.40;;;5.30;;
30998;SDS011;20549;50.042;8.968;2022-10-31T06:57:49;8.73;;;4.97;;
30998;SDS011;20549;50.042;8.968;2022-10-31T07:00:12;5.08;;;4.30;;
30998;SDS011;20549;50.042;8.968;2022-10-31T07:02:38;5.57;;;4.37;;
30998;SDS011;20549;50.042;8.968;2022-10-31T07:05:05;7.90;;;4.37;;
30998;SDS011;20549;50.042;8.968;2022-10-31T07:07:31;5.35;;;4.35;;
30998;SDS011;20549;50.042;8.968;2022-10-31T07:09:58;5.30;;;4.20;;
30998;SDS011;20549;50.042;8.968;2022-10-31T07:12:25;5.12;;;3.90;;
30998;SDS011;20549;50.042;8.968;2022-10-31T07:14:51;4.15;;;3.55;;
30998;SDS011;20549;50.042;8.968;2022-10-31T07:17:18;3.90;;;3.50;;
30998;SDS011;20549;50.042;8.968;2022-10-31T07:19:44;8.18;;;3.80;;
30998;SDS011;20549;50.042;8.968;2022-10-31T07:22:11;4.53;;;3.60;;
30998;SDS011;20549;50.042;8.968;2022-10-31T07:24:38;3.65;;;3.30;;
30998;SDS011;20549;50.042;8.968;2022-10-31T07:29:39;4.87;;;3.52;;
30998;SDS011;20549;50.042;8.968;2022-10-31T07:32:06;5.17;;;3.35;;
30998;SDS011;20549;50.042;8.968;2022-10-31T07:34:32;4.12;;;2.80;;
30998;SDS011;20549;50.042;8.968;2022-10-31T07:36:59;3.85;;;3.20;;
30998;SDS011;20549;50.042;8.968;2022-10-31T07:39:25;3.12;;;2.83;;
30998;SDS011;20549;50.042;8.968;2022-10-31T07:41:52;4.92;;;2.92;;
30998;SDS011;20549;50.042;8.968;2022-10-31T07:44:19;5.25;;;3.60;;
30998;SDS011;20549;50.042;8.968;2022-10-31T07:46:45;3.58;;;2.67;;
30998;SDS011;20549;50.042;8.968;2022-10-31T07:49:12;3.02;;;2.62;;
30998;SDS011;20549;50.042;8.968;2022-10-31T07:51:38;3.30;;;3.00;;
30998;SDS011;20549;50.042;8.968;2022-10-31T07:54:05;5.03;;;3.50;;
30998;SDS011;20549;50.042;8.968;2022-10-31T07:56:32;5.30;;;3.15;;
30998;SDS011;20549;50.042;8.968;2022-10-31T07:58:58;4.47;;;3.50;;
30998;SDS011;20549;50.042;8.968;2022-10-31T08:01:25;3.25;;;2.92;;
30998;SDS011;20549;50.042;8.968;2022-10-31T08:03:51;4.33;;;3.10;;
30998;SDS011;20549;50.042;8.968;2022-10-31T08:06:18;4.47;;;3.15;;
30998;SDS011;20549;50.042;8.968;2022-10-31T08:08:45;3.37;;;3.08;;
30998;SDS011;20549;50.042;8.968;2022-10-31T08:11:11;6.45;;;3.27;;
30998;SDS011;20549;50.042;8.968;2022-10-31T08:13:38;4.22;;;3.00;;
30998;SDS011;20549;50.042;8.968;2022-10-31T08:16:04;7.05;;;3.05;;
30998;SDS011;20549;50.042;8.968;2022-10-31T08:18:31;4.72;;;3.35;;
30998;SDS011;20549;50.042;8.968;2022-10-31T08:20:57;4.70;;;3.17;;
30998;SDS011;20549;50.042;8.968;2022-10-31T08:23:24;6.50;;;3.58;;
30998;SDS011;20549;50.042;8.968;2022-10-31T08:25:51;4.83;;;3.30;;
30998;SDS011;20549;50.042;8.968;2022-10-31T08:28:17;4.42;;;3.58;;
30998;SDS011;20549;50.042;8.968;2022-10-31T08:30:44;6.25;;;3.65;;
30998;SDS011;20549;50.042;8.968;2022-10-31T08:33:12;4.65;;;3.52;;
30998;SDS011;20549;50.042;8.968;2022-10-31T08:35:37;4.37;;;3.27;;
30998;SDS011;20549;50.042;8.968;2022-10-31T08:38:04;4.92;;;3.40;;
30998;SDS011;20549;50.042;8.968;2022-10-31T08:40:31;4.78;;;4.08;;
30998;SDS011;20549;50.042;8.968;2022-10-31T08:43:00;4.05;;;3.58;;
30998;SDS011;20549;50.042;8.968;2022-10-31T08:45:26;4.03;;;3.47;;
30998;SDS011;20549;50.042;8.968;2022-10-31T08:47:56;3.95;;;3.35;;
30998;SDS011;20549;50.042;8.968;2022-10-31T08:50:19;5.00;;;3.60;;
30998;SDS011;20549;50.042;8.968;2022-10-31T08:52:46;6.75;;;4.55;;
30998;SDS011;20549;50.042;8.968;2022-10-31T08:55:12;4.97;;;4.30;;
30998;SDS011;20549;50.042;8.968;2022-10-31T08:57:39;4.37;;;3.72;;
30998;SDS011;20549;50.042;8.968;2022-10-31T09:00:06;5.15;;;3.47;;
30998;SDS011;20549;50.042;8.968;2022-10-31T09:02:32;4.53;;;4.05;;
30998;SDS011;20549;50.042;8.968;2022-10-31T09:04:59;5.28;;;4.10;;
30998;SDS011;20549;50.042;8.968;2022-10-31T09:07:26;6.40;;;3.80;;
30998;SDS011;20549;50.042;8.968;2022-10-31T09:09:52;4.85;;;3.62;;
30998;SDS011;20549;50.042;8.968;2022-10-31T09:12:19;4.67;;;4.10;;
30998;SDS011;20549;50.042;8.968;2022-10-31T09:14:45;4.72;;;4.15;;
30998;SDS011;20549;50.042;8.968;2022-10-31T09:17:12;6.10;;;4.05;;
30998;SDS011;20549;50.042;8.968;2022-10-31T09:19:39;5.12;;;4.15;;
30998;SDS011;20549;50.042;8.968;2022-10-31T09:22:05;4.40;;;4.00;;
30998;SDS011;20549;50.042;8.968;2022-10-31T09:24:32;5.33;;;4.28;;
30998;SDS011;20549;50.042;8.968;2022-10-31T09:26:58;6.72;;;4.15;;
30998;SDS011;20549;50.042;8.968;2022-10-31T09:29:25;4.53;;;4.03;;
30998;SDS011;20549;50.042;8.968;2022-10-31T09:31:51;5.42;;;4.30;;
30998;SDS011;20549;50.042;8.968;2022-10-31T09:34:18;6.45;;;4.08;;
30998;SDS011;20549;50.042;8.968;2022-10-31T09:36:45;4.95;;;4.40;;
30998;SDS011;20549;50.042;8.968;2022-10-31T09:39:11;6.62;;;3.95;;
30998;SDS011;20549;50.042;8.968;2022-10-31T09:41:49;4.67;;;3.75;;
30998;SDS011;20549;50.042;8.968;2022-10-31T09:47:49;5.12;;;3.92;;
30998;SDS011;20549;50.042;8.968;2022-10-31T09:50:14;6.80;;;3.65;;
30998;SDS011;20549;50.042;8.968;2022-10-31T09:52:42;7.22;;;4.65;;
30998;SDS011;20549;50.042;8.968;2022-10-31T09:55:17;8.65;;;4.25;;
30998;SDS011;20549;50.042;8.968;2022-10-31T09:57:43;5.58;;;4.22;;
30998;SDS011;20549;50.042;8.968;2022-10-31T10:00:14;4.28;;;3.87;;
30998;SDS011;20549;50.042;8.968;2022-10-31T10:02:37;4.87;;;4.28;;
30998;SDS011;20549;50.042;8.968;2022-10-31T10:05:17;3.92;;;3.50;;
30998;SDS011;20549;50.042;8.968;2022-10-31T10:07:50;6.45;;;3.62;;
30998;SDS011;20549;50.042;8.968;2022-10-31T10:10:28;5.35;;;3.80;;
30998;SDS011;20549;50.042;8.968;2022-10-31T10:15:39;6.05;;;4.00;;
30998;SDS011;20549;50.042;8.968;2022-10-31T10:20:50;6.08;;;3.75;;
30998;SDS011;20549;50.042;8.968;2022-10-31T10:23:44;5.20;;;3.70;;
30998;SDS011;20549;50.042;8.968;2022-10-31T10:26:20;4.42;;;3.42;;
30998;SDS011;20549;50.042;8.968;2022-10-31T10:28:47;6.62;;;3.70;;
30998;SDS011;20549;50.042;8.968;2022-10-31T10:31:14;4.10;;;3.70;;
30998;SDS011;20549;50.042;8.968;2022-10-31T10:33:40;6.33;;;3.77;;
30998;SDS011;20549;50.042;8.968;2022-10-31T10:36:08;5.85;;;3.80;;
30998;SDS011;20549;50.042;8.968;2022-10-31T10:38:39;5.67;;;4.05;;
30998;SDS011;20549;50.042;8.968;2022-10-31T10:41:17;4.35;;;3.72;;
30998;SDS011;20549;50.042;8.968;2022-10-31T10:43:43;4.90;;;3.90;;
30998;SDS011;20549;50.042;8.968;2022-10-31T10:49:32;5.15;;;3.58;;
30998;SDS011;20549;50.042;8.968;2022-10-31T10:52:06;5.17;;;3.45;;
30998;SDS011;20549;50.042;8.968;2022-10-31T10:54:42;5.58;;;3.40;;
30998;SDS011;20549;50.042;8.968;2022-10-31T10:57:53;3.80;;;3.42;;
30998;SDS011;20549;50.042;8.968;2022-10-31T10:59:37;5.22;;;3.80;;
30998;SDS011;20549;50.042;8.968;2022-10-31T11:02:08;4.55;;;3.92;;
30998;SDS011;20549;50.042;8.968;2022-10-31T11:04:34;6.95;;;4.03;;
30998;SDS011;20549;50.042;8.968;2022-10-31T11:07:00;4.50;;;3.77;;
30998;SDS011;20549;50.042;8.968;2022-10-31T11:09:32;6.90;;;4.30;;
30998;SDS011;20549;50.042;8.968;2022-10-31T11:11:58;7.55;;;4.35;;
30998;SDS011;20549;50.042;8.968;2022-10-31T11:14:25;5.85;;;4.70;;
30998;SDS011;20549;50.042;8.968;2022-10-31T11:17:06;7.28;;;4.30;;
30998;SDS011;20549;50.042;8.968;2022-10-31T11:19:22;4.25;;;3.85;;
30998;SDS011;20549;50.042;8.968;2022-10-31T11:21:48;6.03;;;4.30;;
30998;SDS011;20549;50.042;8.968;2022-10-31T11:24:15;6.37;;;4.45;;
30998;SDS011;20549;50.042;8.968;2022-10-31T11:26:42;4.90;;;4.10;;
30998;SDS011;20549;50.042;8.968;2022-10-31T11:29:29;6.78;;;4.42;;
30998;SDS011;20549;50.042;8.968;2022-10-31T11:31:46;5.65;;;4.15;;
30998;SDS011;20549;50.042;8.968;2022-10-31T11:34:16;4.67;;;3.95;;
30998;SDS011;20549;50.042;8.968;2022-10-31T11:36:39;7.85;;;3.85;;
30998;SDS011;20549;50.042;8.968;2022-10-31T11:39:12;6.85;;;4.03;;
30998;SDS011;20549;50.042;8.968;2022-10-31T11:41:36;6.45;;;4.22;;
30998;SDS011;20549;50.042;8.968;2022-10-31T11:44:11;4.37;;;3.55;;
30998;SDS011;20549;50.042;8.968;2022-10-31T11:46:41;5.90;;;4.55;;
30998;SDS011;20549;50.042;8.968;2022-10-31T11:49:12;4.62;;;4.08;;
30998;SDS011;20549;50.042;8.968;2022-10-31T11:51:49;5.58;;;4.20;;
30998;SDS011;20549;50.042;8.968;2022-10-31T11:54:22;7.87;;;4.47;;
30998;SDS011;20549;50.042;8.968;2022-10-31T11:56:50;5.80;;;4.62;;
30998;SDS011;20549;50.042;8.968;2022-10-31T11:59:24;7.37;;;4.50;;
30998;SDS011;20549;50.042;8.968;2022-10-31T12:01:52;7.08;;;4.47;;
30998;SDS011;20549;50.042;8.968;2022-10-31T12:04:18;6.17;;;4.17;;
30998;SDS011;20549;50.042;8.968;2022-10-31T12:06:45;5.33;;;4.45;;
30998;SDS011;20549;50.042;8.968;2022-10-31T12:12:10;4.58;;;4.00;;
30998;SDS011;20549;50.042;8.968;2022-10-31T12:14:40;7.35;;;4.70;;
30998;SDS011;20549;50.042;8.968;2022-10-31T12:17:22;5.72;;;4.08;;
30998;SDS011;20549;50.042;8.968;2022-10-31T12:25:26;6.53;;;4.15;;
30998;SDS011;20549;50.042;8.968;2022-10-31T12:36:24;6.60;;;4.85;;
30998;SDS011;20549;50.042;8.968;2022-10-31T12:42:01;6.80;;;5.42;;
30998;SDS011;20549;50.042;8.968;2022-10-31T12:50:10;8.53;;;5.03;;
30998;SDS011;20549;50.042;8.968;2022-10-31T12:52:41;7.15;;;5.62;;
30998;SDS011;20549;50.042;8.968;2022-10-31T12:55:27;6.92;;;5.80;;
30998;SDS011;20549;50.042;8.968;2022-10-31T12:58:24;5.87;;;5.35;;
30998;SDS011;20549;50.042;8.968;2022-10-31T13:03:51;8.70;;;5.87;;
30998;SDS011;20549;50.042;8.968;2022-10-31T13:06:17;7.03;;;5.58;;
30998;SDS011;20549;50.042;8.968;2022-10-31T13:08:48;6.85;;;6.22;;
30998;SDS011;20549;50.042;8.968;2022-10-31T13:11:27;6.85;;;5.97;;
30998;SDS011;20549;50.042;8.968;2022-10-31T13:16:52;6.05;;;4.80;;
30998;SDS011;20549;50.042;8.968;2022-10-31T13:19:19;7.47;;;5.40;;
30998;SDS011;20549;50.042;8.968;2022-10-31T13:21:54;9.73;;;4.70;;
30998;SDS011;20549;50.042;8.968;2022-10-31T13:24:19;6.92;;;4.65;;
30998;SDS011;20549;50.042;8.968;2022-10-31T13:26:49;6.83;;;5.53;;
30998;SDS011;20549;50.042;8.968;2022-10-31T13:29:17;6.87;;;4.67;;
30998;SDS011;20549;50.042;8.968;2022-10-31T13:31:40;6.15;;;4.58;;
30998;SDS011;20549;50.042;8.968;2022-10-31T13:34:19;4.78;;;4.08;;
30998;SDS011;20549;50.042;8.968;2022-10-31T13:36:47;5.67;;;4.67;;
30998;SDS011;20549;50.042;8.968;2022-10-31T13:44:29;6.50;;;4.92;;
30998;SDS011;20549;50.042;8.968;2022-10-31T13:46:52;5.50;;;4.90;;
30998;SDS011;20549;50.042;8.968;2022-10-31T13:54:42;5.72;;;4.83;;
30998;SDS011;20549;50.042;8.968;2022-10-31T13:59:56;8.03;;;4.90;;
30998;SDS011;20549;50.042;8.968;2022-10-31T14:02:29;8.25;;;4.90;;
30998;SDS011;20549;50.042;8.968;2022-10-31T14:05:18;5.47;;;4.72;;
30998;SDS011;20549;50.042;8.968;2022-10-31T14:07:33;7.42;;;4.25;;
30998;SDS011;20549;50.042;8.968;2022-10-31T14:10:07;7.12;;;4.08;;
30998;SDS011;20549;50.042;8.968;2022-10-31T14:12:39;4.55;;;3.92;;
30998;SDS011;20549;50.042;8.968;2022-10-31T14:15:22;4.72;;;4.28;;
30998;SDS011;20549;50.042;8.968;2022-10-31T14:17:47;4.40;;;3.92;;
30998;SDS011;20549;50.042;8.968;2022-10-31T14:22:42;4.45;;;3.80;;
30998;SDS011;20549;50.042;8.968;2022-10-31T14:25:25;5.62;;;3.47;;
30998;SDS011;20549;50.042;8.968;2022-10-31T14:27:54;7.10;;;4.03;;
30998;SDS011;20549;50.042;8.968;2022-10-31T14:30:21;5.00;;;3.98;;
30998;SDS011;20549;50.042;8.968;2022-10-31T14:32:49;5.85;;;4.42;;
30998;SDS011;20549;50.042;8.968;2022-10-31T14:35:15;6.58;;;4.58;;
30998;SDS011;20549;50.042;8.968;2022-10-31T14:50:54;5.30;;;4.55;;
30998;SDS011;20549;50.042;8.968;2022-10-31T14:53:26;10.43;;;7.15;;
30998;SDS011;20549;50.042;8.968;2022-10-31T14:55:55;12.23;;;6.17;;
30998;SDS011;20549;50.042;8.968;2022-10-31T14:58:40;5.28;;;4.60;;
30998;SDS011;20549;50.042;8.968;2022-10-31T15:01:06;7.03;;;4.70;;
30998;SDS011;20549;50.042;8.968;2022-10-31T15:03:33;6.85;;;3.85;;
30998;SDS011;20549;50.042;8.968;2022-10-31T15:06:00;5.55;;;4.00;;
30998;SDS011;20549;50.042;8.968;2022-10-31T15:10:58;7.20;;;4.22;;
30998;SDS011;20549;50.042;8.968;2022-10-31T15:13:25;7.42;;;4.12;;
30998;SDS011;20549;50.042;8.968;2022-10-31T15:15:52;4.78;;;4.25;;
30998;SDS011;20549;50.042;8.968;2022-10-31T15:18:20;5.03;;;4.30;;
30998;SDS011;20549;50.042;8.968;2022-10-31T15:20:50;4.78;;;3.75;;
30998;SDS011;20549;50.042;8.968;2022-10-31T15:23:20;7.45;;;4.15;;
30998;SDS011;20549;50.042;8.968;2022-10-31T15:25:43;4.28;;;3.87;;
30998;SDS011;20549;50.042;8.968;2022-10-31T15:28:14;8.08;;;4.42;;
30998;SDS011;20549;50.042;8.968;2022-10-31T15:30:39;4.08;;;3.17;;
30998;SDS011;20549;50.042;8.968;2022-10-31T15:33:24;3.92;;;3.62;;
30998;SDS011;20549;50.042;8.968;2022-10-31T15:35:54;4.45;;;2.90;;
30998;SDS011;20549;50.042;8.968;2022-10-31T15:38:20;4.90;;;3.30;;
30998;SDS011;20549;50.042;8.968;2022-10-31T15:40:51;6.62;;;3.85;;
30998;SDS011;20549;50.042;8.968;2022-10-31T15:43:19;5.25;;;3.77;;
30998;SDS011;20549;50.042;8.968;2022-10-31T15:45:46;5.47;;;3.47;;
30998;SDS011;20549;50.042;8.968;2022-10-31T15:48:15;6.58;;;4.30;;
30998;SDS011;20549;50.042;8.968;2022-10-31T15:50:45;6.40;;;3.95;;
30998;SDS011;20549;50.042;8.968;2022-10-31T15:53:16;5.37;;;4.30;;
30998;SDS011;20549;50.042;8.968;2022-10-31T15:55:48;7.42;;;4.37;;
30998;SDS011;20549;50.042;8.968;2022-10-31T15:58:16;4.80;;;3.85;;
30998;SDS011;20549;50.042;8.968;2022-10-31T16:00:42;7.05;;;4.28;;
30998;SDS011;20549;50.042;8.968;2022-10-31T16:08:23;6.12;;;4.35;;
30998;SDS011;20549;50.042;8.968;2022-10-31T16:10:49;5.35;;;4.00;;
30998;SDS011;20549;50.042;8.968;2022-10-31T16:13:15;5.33;;;4.40;;
30998;SDS011;20549;50.042;8.968;2022-10-31T16:15:55;14.63;;;9.88;;
30998;SDS011;20549;50.042;8.968;2022-10-31T16:18:21;14.13;;;8.73;;
30998;SDS011;20549;50.042;8.968;2022-10-31T16:20:48;11.08;;;7.85;;
30998;SDS011;20549;50.042;8.968;2022-10-31T16:23:14;10.35;;;5.75;;
30998;SDS011;20549;50.042;8.968;2022-10-31T16:25:40;10.38;;;6.85;;